Time;durP1;ratioP1;P1;durP2;ratioP2;P2;SDS_P1;SDS_P2;PMS_P1;PMS_P2;Temp;Humidity;BMP_temperature;BMP_pressure;BME280_temperature;BME280_humidity;BME280_pressure;Samples;Min_cycle;Max_cycle;Signal;HPM_P1;HPM_P2
2022/12/05 00:00:15;;;;;;;55.03;20.95;;;;;;;1.93;100.00;102066.91;7381171;19;20011;-78
2022/12/05 00:02:45;;;;;;;52.05;19.05;;;;;;;1.95;100.00;102062.72;7381346;19;20035;-78
2022/12/05 00:05:18;;;;;;;46.65;21.00;;;;;;;1.98;100.00;102065.53;7380256;19;20070;-78
2022/12/05 00:07:48;;;;;;;49.42;19.10;;;;;;;2.00;100.00;102069.09;7380101;19;20034;-79
2022/12/05 00:10:18;;;;;;;49.25;20.40;;;;;;;1.97;100.00;102066.31;7380218;19;20010;-79
2022/12/05 00:12:48;;;;;;;46.28;20.20;;;;;;;2.01;100.00;102060.56;7378835;19;20087;-80
2022/12/05 00:15:18;;;;;;;50.30;21.67;;;;;;;2.00;100.00;102061.34;7376216;19;20025;-78
2022/12/05 00:17:48;;;;;;;46.15;19.80;;;;;;;2.03;100.00;102058.97;7377585;19;20018;-79
2022/12/05 00:20:20;;;;;;;46.92;18.73;;;;;;;2.04;100.00;102060.75;7378240;19;20105;-78
2022/12/05 00:22:51;;;;;;;43.67;18.25;;;;;;;2.08;100.00;102054.94;7378649;19;20010;-78
2022/12/05 00:25:22;;;;;;;60.20;21.83;;;;;;;2.07;100.00;102060.06;7376599;19;20018;-78
2022/12/05 00:27:52;;;;;;;45.58;17.92;;;;;;;2.13;100.00;102057.84;7377647;19;20507;-78
2022/12/05 00:30:22;;;;;;;54.17;20.50;;;;;;;2.11;100.00;102056.84;7375662;19;20018;-78
2022/12/05 00:32:51;;;;;;;49.33;17.88;;;;;;;2.16;100.00;102055.47;7375452;19;20038;-78
2022/12/05 00:35:24;;;;;;;46.80;19.75;;;;;;;2.14;100.00;102062.22;7378383;19;20018;-78
2022/12/05 00:37:54;;;;;;;45.13;16.77;;;;;;;2.15;100.00;102066.63;7375799;19;20548;-79
2022/12/05 00:40:23;;;;;;;46.35;19.70;;;;;;;2.16;100.00;102065.81;7375951;19;20074;-78
2022/12/05 00:42:53;;;;;;;53.42;21.33;;;;;;;2.17;100.00;102058.16;7377294;19;20011;-79
2022/12/05 00:45:24;;;;;;;49.45;20.95;;;;;;;2.19;100.00;102056.56;7377730;19;20048;-78
2022/12/05 00:47:53;;;;;;;49.78;20.02;;;;;;;2.30;100.00;102060.75;7373511;19;20011;-78
2022/12/05 00:50:26;;;;;;;42.80;17.85;;;;;;;2.34;100.00;102060.97;7376105;19;20028;-79
2022/12/05 00:52:55;;;;;;;43.00;18.85;;;;;;;2.26;100.00;102058.75;7369657;19;20038;-78
2022/12/05 00:55:25;;;;;;;42.58;18.38;;;;;;;2.25;100.00;102056.97;7378710;19;20015;-78
2022/12/05 00:57:55;;;;;;;51.17;20.08;;;;;;;2.27;100.00;102064.84;7377512;19;20015;-78
2022/12/05 01:00:25;;;;;;;51.60;19.15;;;;;;;2.25;100.00;102064.72;7373636;19;20017;-79
2022/12/05 01:02:54;;;;;;;40.08;16.67;;;;;;;2.29;100.00;102068.41;7377104;19;20056;-78
2022/12/05 01:05:27;;;;;;;40.85;18.10;;;;;;;2.35;100.00;102070.53;7373543;19;20011;-78
2022/12/05 01:07:57;;;;;;;41.42;18.55;;;;;;;2.41;100.00;102063.16;7374072;19;20015;-78
2022/12/05 01:10:27;;;;;;;53.60;20.38;;;;;;;2.37;100.00;102062.06;7377014;19;20017;-78
2022/12/05 01:12:57;;;;;;;46.03;17.17;;;;;;;2.45;100.00;102066.03;7375981;19;20007;-78
2022/12/05 01:15:27;;;;;;;45.75;19.67;;;;;;;2.41;100.00;102063.16;7372344;19;20049;-79
2022/12/05 01:17:57;;;;;;;42.72;18.10;;;;;;;2.42;100.00;102065.84;7373577;19;20033;-78
2022/12/05 01:20:30;;;;;;;49.67;18.13;;;;;;;2.42;100.00;102049.41;7371431;19;20014;-78
2022/12/05 01:23:00;;;;;;;46.05;17.33;;;;;;;2.37;100.00;102055.97;7375711;19;20482;-79
2022/12/05 01:25:29;;;;;;;47.10;17.10;;;;;;;2.41;100.00;102060.56;7375311;19;20028;-78
2022/12/05 01:27:59;;;;;;;48.38;17.45;;;;;;;2.48;100.00;102062.75;7376286;19;20010;-79
2022/12/05 01:30:29;;;;;;;47.53;17.50;;;;;;;2.40;100.00;102063.94;7372732;19;20015;-78
2022/12/05 01:33:01;;;;;;;50.05;19.65;;;;;;;2.42;100.00;102067.53;7371980;19;20013;-78
2022/12/05 01:35:35;;;;;;;38.25;15.88;;;;;;;2.47;100.00;102066.16;7373881;19;20329;-78
2022/12/05 01:38:06;;;;;;;43.45;17.40;;;;;;;2.44;100.00;102066.84;7371509;19;20026;-78
2022/12/05 01:40:37;;;;;;;48.55;19.60;;;;;;;2.44;100.00;102068.53;7370709;19;20010;-78
2022/12/05 01:43:14;;;;;;;40.10;16.35;;;;;;;2.46;100.00;102072.13;7368522;19;20006;-78
2022/12/05 01:45:46;;;;;;;44.85;17.23;;;;;;;2.52;100.00;102067.34;7370542;19;20146;-78
2022/12/05 01:48:19;;;;;;;47.67;18.15;;;;;;;2.48;100.00;102071.41;7367105;19;20495;-78
2022/12/05 01:50:52;;;;;;;46.80;18.13;;;;;;;2.53;100.00;102069.13;7372098;19;20660;-80
2022/12/05 01:53:23;;;;;;;49.97;17.80;;;;;;;2.51;100.00;102070.72;7371625;19;20006;-78
2022/12/05 01:55:54;;;;;;;50.63;19.48;;;;;;;2.49;100.00;102069.72;7375465;19;20015;-79
2022/12/05 01:58:30;;;;;;;44.55;18.85;;;;;;;2.47;100.00;102064.44;7373076;19;20850;-76
2022/12/05 02:01:00;;;;;;;48.83;19.27;;;;;;;2.49;100.00;102062.84;7374007;19;20014;-76
2022/12/05 02:03:30;;;;;;;42.80;17.15;;;;;;;2.53;100.00;102064.84;7374519;19;20014;-76
2022/12/05 02:06:03;;;;;;;38.45;16.73;;;;;;;2.53;100.00;102066.53;7375145;19;20021;-77
2022/12/05 02:08:34;;;;;;;45.53;15.10;;;;;;;2.51;100.00;102063.84;7375626;19;20090;-77
2022/12/05 02:11:04;;;;;;;43.30;17.40;;;;;;;2.49;100.00;102068.03;7374502;19;20022;-77
2022/12/05 02:14:01;;;;;;;50.15;18.90;;;;;;;2.50;100.00;102080.19;7375254;19;20006;-77
2022/12/05 02:16:43;;;;;;;37.00;15.18;;;;;;;2.53;100.00;102074.31;7374762;19;20058;-77
2022/12/05 02:19:40;;;;;;;43.65;17.33;;;;;;;2.53;100.00;102070.03;7374587;19;20018;-78
2022/12/05 02:22:53;;;;;;;39.17;16.40;;;;;;;2.60;100.00;102071.31;7376990;19;20017;-78
2022/12/05 02:25:40;;;;;;;42.75;16.73;;;;;;;2.58;100.00;102063.47;7375005;19;20077;-77
2022/12/05 02:28:27;;;;;;;47.85;18.67;;;;;;;2.52;100.00;102067.34;7376765;19;20042;-78
2022/12/05 02:31:06;;;;;;;42.10;15.95;;;;;;;2.53;100.00;102066.53;7376106;19;20245;-78
2022/12/05 02:33:41;;;;;;;44.60;16.65;;;;;;;2.59;100.00;102066.94;7377135;19;20062;-77
2022/12/05 02:36:16;;;;;;;47.92;18.33;;;;;;;2.60;100.00;102066.16;7375485;19;20308;-77
2022/12/05 02:38:55;;;;;;;49.70;18.25;;;;;;;2.59;100.00;102061.75;7370953;19;20026;-76
2022/12/05 02:41:34;;;;;;;42.40;17.42;;;;;;;2.55;100.00;102068.44;7375136;19;20022;-76
2022/12/05 02:44:08;;;;;;;41.60;16.25;;;;;;;2.58;100.00;102072.91;7373167;19;20010;-77
2022/12/05 02:46:43;;;;;;;45.30;17.60;;;;;;;2.59;100.00;102080.78;7377005;19;20018;-76
2022/12/05 02:49:18;;;;;;;41.33;17.17;;;;;;;2.61;100.00;102079.19;7372813;19;20073;-77
2022/12/05 02:51:53;;;;;;;46.72;16.63;;;;;;;2.55;100.00;102073.63;7370086;19;20014;-76
2022/12/05 02:54:26;;;;;;;43.47;16.85;;;;;;;2.59;100.00;102079.88;7370194;19;20052;-77
2022/12/05 02:56:57;;;;;;;47.28;19.42;;;;;;;2.59;100.00;102075.59;7376278;19;20022;-77
2022/12/05 02:59:26;;;;;;;39.97;17.35;;;;;;;2.60;100.00;102079.09;7376467;19;20019;-77
2022/12/05 03:01:59;;;;;;;38.33;17.60;;;;;;;2.61;100.00;102078.28;7374023;19;20021;-76
2022/12/05 03:04:31;;;;;;;37.20;17.10;;;;;;;2.68;100.00;102083.06;7377500;19;20010;-76
2022/12/05 03:07:05;;;;;;;46.15;18.83;;;;;;;2.64;100.00;102078.50;7374303;19;20011;-75
2022/12/05 03:09:38;;;;;;;40.22;17.50;;;;;;;2.65;100.00;102082.88;7375821;19;20503;-78
2022/12/05 03:12:13;;;;;;;45.45;17.75;;;;;;;2.66;100.00;102069.13;7374840;19;20530;-78
2022/12/05 03:14:47;;;;;;;38.08;16.60;;;;;;;2.70;100.00;102068.53;7372184;19;20015;-78
2022/12/05 03:17:23;;;;;;;43.55;18.27;;;;;;;2.74;100.00;102064.44;7373001;19;20014;-76
2022/12/05 03:19:59;;;;;;;44.35;15.93;;;;;;;2.69;100.00;102066.75;7374417;19;20017;-76
2022/12/05 03:22:34;;;;;;;40.95;16.65;;;;;;;2.70;100.00;102073.72;7371237;19;20014;-76
2022/12/05 03:25:05;;;;;;;47.67;17.42;;;;;;;2.71;100.00;102070.31;7376539;19;20023;-76
2022/12/05 03:27:46;;;;;;;43.10;16.42;;;;;;;2.76;100.00;102079.28;7372807;19;20002;-76
2022/12/05 03:30:19;;;;;;;38.75;17.77;;;;;;;2.75;100.00;102069.72;7373353;19;20007;-76
2022/12/05 03:32:59;;;;;;;41.92;15.85;;;;;;;2.69;100.00;102077.09;7373496;19;20026;-78
2022/12/05 03:35:33;;;;;;;42.92;19.33;;;;;;;2.77;100.00;102083.66;7372678;19;20040;-76
2022/12/05 03:38:11;;;;;;;41.10;16.20;;;;;;;2.75;100.00;102084.38;7373262;19;20821;-76
2022/12/05 03:40:47;;;;;;;48.58;19.30;;;;;;;2.79;100.00;102084.66;7373950;19;20053;-77
2022/12/05 03:43:24;;;;;;;49.05;16.35;;;;;;;2.76;100.00;102084.47;7371765;19;20019;-78
2022/12/05 03:46:00;;;;;;;39.30;16.58;;;;;;;2.74;100.00;102091.25;7373101;19;20302;-78
2022/12/05 03:48:39;;;;;;;35.47;15.23;;;;;;;2.75;100.00;102087.84;7373629;19;20026;-78
2022/12/05 03:51:12;;;;;;;33.58;14.73;;;;;;;2.78;100.00;102090.66;7371997;19;20025;-77
2022/12/05 03:53:47;;;;;;;40.53;16.13;;;;;;;2.76;100.00;102097.41;7371125;19;20052;-78
2022/12/05 03:56:22;;;;;;;47.53;18.50;;;;;;;2.80;100.00;102098.50;7372279;19;20018;-78
2022/12/05 03:59:00;;;;;;;39.58;14.43;;;;;;;2.75;100.00;102099.91;7372942;19;20023;-78
2022/12/05 04:01:33;;;;;;;34.05;15.20;;;;;;;2.75;100.00;102100.81;7372404;19;20105;-78
2022/12/05 04:04:10;;;;;;;50.97;18.40;;;;;;;2.79;100.00;102101.91;7373632;19;20070;-76
2022/12/05 04:06:42;;;;;;;40.65;16.33;;;;;;;2.81;100.00;102101.22;7373233;19;20078;-76
2022/12/05 04:09:16;;;;;;;36.50;15.52;;;;;;;2.78;100.00;102098.41;7378592;19;20021;-76
2022/12/05 04:11:49;;;;;;;;;;;;;;;2.79;100.00;102105.38;7382257;19;20105;-76
2022/12/05 04:14:23;;;;;;;36.38;14.70;;;;;;;2.83;100.00;102104.78;7381359;19;20626;-76
2022/12/05 04:17:04;;;;;;;40.00;14.82;;;;;;;2.80;100.00;102107.19;7377824;19;20052;-76
2022/12/05 04:22:26;;;;;;;41.45;16.90;;;;;;;2.80;100.00;102103.69;7378633;19;20018;-78
2022/12/05 04:27:48;;;;;;;37.90;15.57;;;;;;;2.83;100.00;102107.38;7379019;19;20113;-77
2022/12/05 04:30:20;;;;;;;40.85;16.73;;;;;;;2.80;100.00;102109.78;7379830;19;20085;-77
2022/12/05 04:32:57;;;;;;;40.85;17.27;;;;;;;2.78;100.00;102101.00;7380644;19;20025;-78
2022/12/05 04:35:34;;;;;;;42.35;15.50;;;;;;;2.81;100.00;102110.66;7380757;19;20026;-78
2022/12/05 04:38:06;;;;;;;46.22;17.27;;;;;;;2.83;100.00;102107.38;7378853;19;20503;-78
2022/12/05 04:40:42;;;;;;;41.95;16.67;;;;;;;2.81;100.00;102103.78;7378301;19;20022;-77
2022/12/05 04:43:14;;;;;;;38.15;15.38;;;;;;;2.80;100.00;102104.59;7380290;19;20688;-77
2022/12/05 04:45:45;;;;;;;34.22;15.32;;;;;;;2.77;100.00;102107.00;7377751;19;20023;-78
2022/12/05 04:48:18;;;;;;;39.42;17.10;;;;;;;2.78;100.00;102102.69;7379771;19;20515;-77
2022/12/05 04:50:55;;;;;;;37.85;14.75;;;;;;;2.84;100.00;102095.31;7378275;19;20018;-78
2022/12/05 04:53:28;;;;;;;37.33;15.85;;;;;;;2.82;100.00;102104.69;7376914;19;20046;-77
2022/12/05 04:56:01;;;;;;;37.75;14.98;;;;;;;2.83;100.00;102107.38;7378236;19;20006;-77
2022/12/05 04:58:33;;;;;;;44.92;15.32;;;;;;;2.82;100.00;102105.59;7380312;19;20470;-77
2022/12/05 05:01:09;;;;;;;40.20;14.57;;;;;;;2.84;100.00;102105.69;7378080;19;20110;-77
2022/12/05 05:03:44;;;;;;;33.65;15.45;;;;;;;2.88;100.00;102105.97;7378273;19;20017;-76
2022/12/05 05:06:17;;;;;;;37.83;16.23;;;;;;;2.87;100.00;102104.19;7376669;19;20010;-76
2022/12/05 05:08:52;;;;;;;42.78;16.30;;;;;;;2.85;100.00;102107.47;7377798;19;20022;-76
2022/12/05 05:11:26;;;;;;;37.55;15.32;;;;;;;2.90;100.00;102106.09;7378852;19;21041;-76
2022/12/05 05:13:57;;;;;;;39.50;15.98;;;;;;;2.87;100.00;102103.28;7376180;19;20019;-76
2022/12/05 05:16:30;;;;;;;38.05;15.20;;;;;;;2.88;100.00;102108.56;7378657;19;20014;-77
2022/12/05 05:18:59;;;;;;;37.95;14.98;;;;;;;2.85;100.00;102108.38;7377590;19;20010;-76
2022/12/05 05:21:34;;;;;;;37.45;14.70;;;;;;;2.90;100.00;102104.38;7377187;19;20102;-77
2022/12/05 05:24:06;;;;;;;38.58;14.70;;;;;;;2.95;100.00;102112.47;7375458;19;20027;-77
2022/12/05 05:26:38;;;;;;;39.53;15.90;;;;;;;2.96;100.00;102106.47;7379659;19;20010;-77
2022/12/05 05:29:08;;;;;;;38.35;15.13;;;;;;;2.95;100.00;102108.16;7374824;19;20050;-77
2022/12/05 05:31:40;;;;;;;39.33;16.17;;;;;;;2.97;100.00;102115.16;7374408;19;20014;-77
2022/12/05 05:34:11;;;;;;;37.70;14.90;;;;;;;2.99;100.00;102123.91;7377486;19;20500;-77
2022/12/05 05:36:44;;;;;;;40.45;15.80;;;;;;;3.02;100.00;102125.00;7375709;19;20027;-76
2022/12/05 05:39:15;;;;;;;33.87;14.50;;;;;;;3.02;100.00;102119.81;7374561;19;20022;-76
2022/12/05 05:41:45;;;;;;;39.08;16.13;;;;;;;3.06;100.00;102116.63;7375024;19;20295;-76
2022/12/05 05:44:15;;;;;;;41.78;14.95;;;;;;;3.10;100.00;102122.91;7375316;19;20025;-76
2022/12/05 05:46:45;;;;;;;35.63;15.32;;;;;;;3.12;100.00;102121.31;7375685;19;20015;-77
2022/12/05 05:49:15;;;;;;;39.58;15.75;;;;;;;3.12;100.00;102124.75;7373755;19;20467;-76
2022/12/05 05:51:47;;;;;;;34.10;14.57;;;;;;;3.15;100.00;102124.97;7376437;19;20086;-76
2022/12/05 05:54:16;;;;;;;42.10;15.23;;;;;;;3.12;100.00;102123.91;7373342;19;20017;-76
2022/12/05 05:56:46;;;;;;;38.38;13.77;;;;;;;3.13;100.00;102118.78;7375948;19;20017;-77
2022/12/05 05:59:16;;;;;;;42.25;16.77;;;;;;;3.18;100.00;102125.16;7378071;19;20053;-77
2022/12/05 06:01:46;;;;;;;40.97;14.70;;;;;;;3.14;100.00;102119.69;7373489;19;20022;-77
2022/12/05 06:04:16;;;;;;;36.83;14.75;;;;;;;3.19;100.00;102128.63;7374346;19;20025;-76
2022/12/05 06:06:49;;;;;;;40.95;16.45;;;;;;;3.18;100.00;102127.75;7371837;19;20014;-76
2022/12/05 06:09:19;;;;;;;39.78;15.75;;;;;;;3.20;100.00;102135.63;7376704;19;20020;-76
2022/12/05 06:11:49;;;;;;;39.45;17.08;;;;;;;3.27;100.00;102127.44;7376706;19;20039;-76
2022/12/05 06:14:18;;;;;;;39.63;15.55;;;;;;;3.26;100.00;102126.53;7375652;19;20094;-76
2022/12/05 06:16:48;;;;;;;41.47;14.90;;;;;;;3.26;100.00;102129.13;7375587;19;20067;-76
2022/12/05 06:19:18;;;;;;;42.95;16.83;;;;;;;3.27;100.00;102119.66;7374492;19;20316;-77
2022/12/05 06:21:53;;;;;;;38.28;17.55;;;;;;;3.29;100.00;102126.72;7373556;19;20011;-77
2022/12/05 06:24:22;;;;;;;41.78;15.35;;;;;;;3.31;100.00;102129.41;7372614;19;20018;-77
2022/12/05 06:26:52;;;;;;;43.00;17.63;;;;;;;3.33;100.00;102121.72;7375618;19;20025;-78
2022/12/05 06:29:22;;;;;;;44.63;15.90;;;;;;;3.33;100.00;102126.91;7371525;19;20025;-78
2022/12/05 06:31:56;;;;;;;38.70;16.83;;;;;;;3.35;100.00;102131.41;7370967;19;20722;-79
2022/12/05 06:34:26;;;;;;;47.33;17.55;;;;;;;3.39;100.00;102125.59;7374093;19;20040;-78
2022/12/05 06:36:58;;;;;;;40.03;16.05;;;;;;;3.43;100.00;102129.28;7373630;19;20140;-77
2022/12/05 06:39:28;;;;;;;42.58;16.90;;;;;;;3.44;100.00;102129.38;7369504;19;20052;-77
2022/12/05 06:41:59;;;;;;;47.80;17.35;;;;;;;3.46;100.00;102135.56;7374388;19;20054;-77
2022/12/05 06:44:30;;;;;;;44.13;17.17;;;;;;;3.49;100.00;102132.25;7373481;19;20383;-76
2022/12/05 06:46:59;;;;;;;41.17;17.10;;;;;;;3.55;100.00;102130.06;7376297;19;20026;-76
2022/12/05 06:49:31;;;;;;;47.03;18.40;;;;;;;3.57;100.00;102133.63;7374281;19;20021;-77
2022/12/05 06:52:09;;;;;;;45.33;15.95;;;;;;;3.55;100.00;102133.53;7374459;19;20015;-77
2022/12/05 06:54:39;;;;;;;44.67;16.43;;;;;;;3.56;100.00;102137.94;7369157;19;20010;-78
2022/12/05 06:57:08;;;;;;;46.75;18.40;;;;;;;3.70;100.00;102141.38;7374139;19;20094;-78
2022/12/05 06:59:38;;;;;;;43.42;17.08;;;;;;;3.65;100.00;102145.38;7372999;19;20052;-78
2022/12/05 07:02:07;;;;;;;38.55;15.63;;;;;;;3.64;100.00;102150.47;7373566;19;20030;-78
2022/12/05 07:04:37;;;;;;;40.47;17.02;;;;;;;3.64;100.00;102153.97;7373198;19;20014;-77
2022/12/05 07:07:10;;;;;;;38.90;17.45;;;;;;;3.64;100.00;102153.06;7372209;19;20590;-77
2022/12/05 07:09:52;;;;;;;38.72;18.05;;;;;;;3.66;100.00;102154.06;7377199;19;20019;-78
2022/12/05 07:12:22;;;;;;;42.35;19.02;;;;;;;3.66;100.00;102154.06;7375419;19;20014;-77
2022/12/05 07:14:52;;;;;;;45.10;17.83;;;;;;;3.73;100.00;102162.31;7371157;19;20014;-78
2022/12/05 07:17:23;;;;;;;36.97;15.27;;;;;;;3.74;100.00;102155.44;7372865;19;20034;-77
2022/12/05 07:19:54;;;;;;;38.25;16.33;;;;;;;3.76;100.00;102161.63;7375537;19;20114;-78
2022/12/05 07:22:27;;;;;;;38.88;14.90;;;;;;;3.79;100.00;102161.81;7370708;19;20006;-78
2022/12/05 07:24:56;;;;;;;37.20;14.85;;;;;;;3.80;100.00;102153.22;7374773;19;20014;-78
2022/12/05 07:27:26;;;;;;;43.50;15.80;;;;;;;3.76;100.00;102159.03;7372727;19;20047;-78
2022/12/05 07:29:57;;;;;;;39.60;15.05;;;;;;;3.77;100.00;102169.50;7373233;19;20014;-77
2022/12/05 07:32:27;;;;;;;40.05;15.15;;;;;;;3.79;100.00;102173.09;7372872;19;20078;-78
2022/12/05 07:34:58;;;;;;;38.83;16.15;;;;;;;3.79;100.00;102159.22;7375651;19;20018;-77
2022/12/05 07:37:31;;;;;;;34.55;14.15;;;;;;;3.81;100.00;102167.97;7371730;19;20095;-77
2022/12/05 07:40:01;;;;;;;33.60;13.77;;;;;;;3.81;100.00;102170.56;7373516;19;20011;-77
2022/12/05 07:42:30;;;;;;;36.22;12.95;;;;;;;3.84;100.00;102169.06;7377683;19;20018;-77
2022/12/05 07:45:00;;;;;;;28.10;13.60;;;;;;;3.82;100.00;102177.56;7380365;19;20377;-77
2022/12/05 07:47:34;;;;;;;33.08;15.70;;;;;;;3.82;100.00;102178.47;7377740;19;20333;-76
2022/12/05 07:50:04;;;;;;;31.58;14.20;;;;;;;3.84;100.00;102170.75;7379195;19;20021;-76
2022/12/05 07:52:36;;;;;;;31.13;14.27;;;;;;;3.92;100.00;102177.31;7377764;19;20025;-77
2022/12/05 07:55:07;;;;;;;26.55;12.68;;;;;;;3.90;100.00;102178.94;7380427;19;20014;-77
2022/12/05 07:57:37;;;;;;;30.27;12.85;;;;;;;3.91;100.00;102184.22;7378378;19;20015;-77
2022/12/05 08:00:08;;;;;;;28.33;12.10;;;;;;;3.86;100.00;102183.03;7379292;19;20018;-77
2022/12/05 08:02:38;;;;;;;28.55;11.00;;;;;;;3.98;100.00;102188.09;7378252;19;20078;-78
2022/12/05 08:05:09;;;;;;;28.40;12.63;;;;;;;3.95;100.00;102180.09;7375606;19;20376;-77
2022/12/05 08:07:42;;;;;;;26.27;13.00;;;;;;;3.98;100.00;102179.41;7378946;19;20102;-78
2022/12/05 08:10:15;;;;;;;25.02;12.52;;;;;;;4.02;100.00;102177.09;7375724;19;20043;-77
2022/12/05 08:12:44;;;;;;;24.92;11.32;;;;;;;3.98;100.00;102180.28;7385386;19;20015;-77
2022/12/05 08:15:14;;;;;;;26.95;11.63;;;;;;;4.00;100.00;102182.97;7378317;19;20029;-77
2022/12/05 08:17:44;;;;;;;24.67;9.98;;;;;;;4.05;100.00;102179.88;7381215;19;20014;-76
2022/12/05 08:20:15;;;;;;;23.23;11.07;;;;;;;4.00;100.00;102183.88;7379659;19;20045;-75
2022/12/05 08:22:48;;;;;;;27.73;11.80;;;;;;;4.04;100.00;102193.66;7377329;19;20010;-79
2022/12/05 08:25:18;;;;;;;22.70;10.43;;;;;;;4.08;100.00;102179.16;7373017;19;20564;-78
2022/12/05 08:27:48;;;;;;;22.50;12.00;;;;;;;4.09;100.00;102180.94;7372893;19;20011;-78
2022/12/05 08:30:18;;;;;;;24.15;10.70;;;;;;;4.08;100.00;102194.72;7371548;19;20026;-79
2022/12/05 08:32:48;;;;;;;22.45;9.85;;;;;;;4.10;100.00;102185.34;7376754;19;20010;-78
2022/12/05 08:35:18;;;;;;;22.02;10.55;;;;;;;4.08;100.00;102180.06;7375661;19;20033;-76
2022/12/05 08:37:51;;;;;;;22.20;9.45;;;;;;;4.12;100.00;102200.22;7375348;19;20018;-76
2022/12/05 08:40:21;;;;;;;21.48;9.68;;;;;;;4.10;100.00;102201.81;7373001;19;20056;-79
2022/12/05 08:42:51;;;;;;;23.88;10.13;;;;;;;4.14;100.00;102202.91;7374088;19;20010;-76
2022/12/05 08:45:21;;;;;;;21.75;9.65;;;;;;;4.11;100.00;102206.19;7379888;19;20015;-76
2022/12/05 08:47:51;;;;;;;25.13;10.57;;;;;;;4.17;100.00;102203.03;7379830;19;20010;-76
2022/12/05 08:50:21;;;;;;;21.90;9.60;;;;;;;4.17;100.00;102203.94;7378066;19;20019;-76
2022/12/05 08:52:54;;;;;;;22.25;10.32;;;;;;;4.21;100.00;102205.94;7375274;19;20014;-77
2022/12/05 08:55:24;;;;;;;25.33;10.82;;;;;;;4.16;100.00;102211.69;7379135;19;20003;-76
2022/12/05 08:57:54;;;;;;;20.48;9.80;;;;;;;4.14;100.00;102213.28;7378484;19;20015;-76
2022/12/05 09:00:23;;;;;;;20.95;9.80;;;;;;;4.17;100.00;102223.81;7378136;19;20097;-76
2022/12/05 09:02:53;;;;;;;22.27;9.20;;;;;;;4.18;100.00;102221.31;7370187;19;20087;-77
2022/12/05 09:05:24;;;;;;;20.08;9.20;;;;;;;4.16;100.00;102217.72;7372136;19;20014;-78
2022/12/05 09:08:00;;;;;;;22.17;9.05;;;;;;;4.17;100.00;102224.72;7378445;19;20021;-78
2022/12/05 09:10:30;;;;;;;19.10;9.30;;;;;;;4.21;100.00;102220.59;7369271;19;20022;-77
2022/12/05 09:13:00;;;;;;;17.27;8.82;;;;;;;4.22;100.00;102225.00;7367564;19;20006;-77
2022/12/05 09:15:30;;;;;;;24.67;10.95;;;;;;;4.21;100.00;102226.69;7373230;19;20337;-76
2022/12/05 09:18:00;;;;;;;22.00;9.30;;;;;;;4.26;100.00;102224.38;7372595;19;20010;-77
2022/12/05 09:20:29;;;;;;;17.10;8.20;;;;;;;4.25;100.00;102226.06;7371379;19;20086;-77
2022/12/05 09:23:02;;;;;;;23.45;9.82;;;;;;;4.25;100.00;102228.69;7368309;19;20093;-76
2022/12/05 09:25:35;;;;;;;21.63;9.82;;;;;;;4.25;100.00;102232.97;7373683;19;20053;-78
2022/12/05 09:28:04;;;;;;;21.98;10.15;;;;;;;4.24;100.00;102231.19;7371236;19;20095;-78
2022/12/05 09:30:34;;;;;;;19.25;9.30;;;;;;;4.23;100.00;102235.47;7369139;19;20015;-78
2022/12/05 09:33:04;;;;;;;20.42;9.50;;;;;;;4.26;100.00;102230.47;7370322;19;20017;-78
2022/12/05 09:35:34;;;;;;;19.42;9.63;;;;;;;4.32;100.00;102236.84;7368031;19;20014;-78
2022/12/05 09:38:06;;;;;;;18.27;8.10;;;;;;;4.27;100.00;102237.47;7374118;19;20014;-77
2022/12/05 09:40:41;;;;;;;16.73;8.13;;;;;;;4.30;100.00;102239.34;7373999;19;20074;-76
2022/12/05 09:43:24;;;;;;;19.45;9.02;;;;;;;4.32;100.00;102247.22;7375276;19;20019;-77
2022/12/05 09:45:58;;;;;;;17.45;8.43;;;;;;;4.36;100.00;102251.81;7377306;19;20118;-77
2022/12/05 09:48:28;;;;;;;14.75;7.82;;;;;;;4.37;100.00;102248.41;7375564;19;20015;-77
2022/12/05 09:51:02;;;;;;;18.85;9.48;;;;;;;4.39;100.00;102242.50;7374859;19;20039;-77
2022/12/05 09:53:39;;;;;;;16.88;7.45;;;;;;;4.40;100.00;102251.19;7374517;19;20014;-77
2022/12/05 09:56:21;;;;;;;13.50;6.82;;;;;;;4.44;100.00;102246.28;7377247;19;20042;-77
2022/12/05 09:58:53;;;;;;;17.30;7.30;;;;;;;4.44;100.00;102246.28;7374690;19;20014;-77
2022/12/05 10:01:30;;;;;;;16.65;7.90;;;;;;;4.47;100.00;102251.66;7376803;19;20057;-77
2022/12/05 10:04:14;;;;;;;16.67;7.57;;;;;;;4.53;100.00;102245.94;7374426;19;20026;-77
2022/12/05 10:06:52;;;;;;;14.75;7.18;;;;;;;4.53;100.00;102248.53;7371721;19;20052;-77
2022/12/05 10:09:39;;;;;;;15.85;7.40;;;;;;;4.51;100.00;102247.53;7378687;19;20022;-77
2022/12/05 10:12:18;;;;;;;18.30;7.75;;;;;;;4.53;100.00;102246.81;7371437;19;20014;-76
2022/12/05 10:15:03;;;;;;;17.85;8.10;;;;;;;4.57;100.00;102240.09;7376122;19;20018;-77
2022/12/05 10:17:37;;;;;;;12.85;7.10;;;;;;;4.60;100.00;102242.88;7378573;19;20046;-77
2022/12/05 10:20:15;;;;;;;16.88;7.90;;;;;;;4.55;100.00;102245.22;7376415;19;20025;-77
2022/12/05 10:22:49;;;;;;;14.52;6.45;;;;;;;4.55;100.00;102247.81;7378230;19;20006;-77
2022/12/05 10:25:23;;;;;;;15.25;7.35;;;;;;;4.54;100.00;102255.50;7375194;19;20394;-78
2022/12/05 10:27:54;;;;;;;15.57;7.95;;;;;;;4.59;100.00;102252.38;7376339;19;20022;-77
2022/12/05 10:30:26;;;;;;;12.00;5.10;;;;;;;4.66;100.00;102253.66;7373057;19;20011;-76
2022/12/05 10:32:57;;;;;;;17.63;7.45;;;;;;;4.65;100.00;102244.06;7377832;19;20010;-77
2022/12/05 10:35:29;;;;;;;17.33;8.00;;;;;;;4.62;100.00;102246.47;7373337;19;20074;-77
2022/12/05 10:38:01;;;;;;;16.48;7.70;;;;;;;4.63;100.00;102250.88;7374901;19;20559;-76
2022/12/05 10:40:38;;;;;;;16.50;8.27;;;;;;;4.73;100.00;102253.22;7372658;19;20019;-77
2022/12/05 10:43:09;;;;;;;16.77;7.03;;;;;;;4.74;100.00;102246.31;7375892;19;20014;-76
2022/12/05 10:45:45;;;;;;;17.63;8.30;;;;;;;4.73;100.00;102247.13;7373322;19;20025;-77
2022/12/05 10:48:17;;;;;;;15.98;6.75;;;;;;;4.71;100.00;102249.63;7378421;19;20015;-78
2022/12/05 10:50:50;;;;;;;17.02;7.68;;;;;;;4.73;100.00;102249.72;7379321;19;20015;-78
2022/12/05 10:53:25;;;;;;;16.05;7.57;;;;;;;4.72;100.00;102243.63;7372409;19;20559;-76
2022/12/05 10:55:58;;;;;;;15.48;6.43;;;;;;;4.76;100.00;102240.41;7376192;19;20014;-77
2022/12/05 10:58:57;;;;;;;16.70;7.38;;;;;;;4.71;100.00;102247.03;7374296;19;20034;-77
2022/12/05 11:01:28;;;;;;;15.98;7.00;;;;;;;4.72;100.00;102243.63;7375548;19;20017;-77
2022/12/05 11:04:01;;;;;;;17.33;7.20;;;;;;;4.73;100.00;102240.22;7375186;19;20584;-78
2022/12/05 11:06:35;;;;;;;15.45;6.88;;;;;;;4.74;100.00;102241.13;7374845;19;20015;-77
2022/12/05 11:09:14;;;;;;;17.20;7.53;;;;;;;4.71;100.00;102241.81;7371097;19;20099;-78
2022/12/05 11:12:02;;;;;;;19.42;8.52;;;;;;;4.78;100.00;102230.97;7368471;19;20014;-77
2022/12/05 11:14:35;;;;;;;13.95;6.63;;;;;;;4.77;100.00;102237.00;7368462;19;20052;-78
2022/12/05 11:17:07;;;;;;;13.77;6.88;;;;;;;4.76;100.00;102239.50;7371902;19;20481;-78
2022/12/05 11:19:38;;;;;;;18.67;7.03;;;;;;;4.77;100.00;102231.78;7373721;19;20056;-77
2022/12/05 11:22:09;;;;;;;14.30;6.45;;;;;;;4.77;100.00;102234.38;7375708;19;20247;-78
2022/12/05 11:24:40;;;;;;;16.60;7.40;;;;;;;4.74;100.00;102235.91;7380201;19;20022;-77
2022/12/05 11:27:29;;;;;;;13.82;6.65;;;;;;;4.74;100.00;102242.00;7376473;19;20015;-78
2022/12/05 11:30:02;;;;;;;14.15;6.82;;;;;;;4.82;100.00;102239.84;7377494;19;20703;-77
2022/12/05 11:32:34;;;;;;;13.80;6.30;;;;;;;4.84;100.00;102236.53;7381622;19;20106;-77
2022/12/05 11:35:19;;;;;;;14.30;6.13;;;;;;;4.82;100.00;102238.16;7379921;19;20021;-77
2022/12/05 11:37:54;;;;;;;12.95;5.97;;;;;;;4.81;100.00;102244.16;7380929;19;20462;-77
2022/12/05 11:40:32;;;;;;;12.32;6.03;;;;;;;4.83;100.00;102242.56;7383467;19;20728;-77
2022/12/05 11:43:29;;;;;;;14.13;6.88;;;;;;;4.89;100.00;102237.72;7377837;19;20077;-79